createdAt,value
2022-09-21T00:01:25.597Z,72.46
2022-09-21T00:04:03.765Z,72.61
2022-09-21T00:06:34.214Z,72.87
2022-09-21T00:09:03.763Z,73.24
2022-09-21T00:11:32.904Z,72.89
2022-09-21T00:14:04.408Z,73.29
2022-09-21T00:16:32.012Z,72.36
2022-09-21T00:18:59.150Z,72.76
2022-09-21T00:21:27.841Z,72.25
2022-09-21T00:23:54.439Z,71.87
2022-09-21T00:26:25.206Z,71.68
2022-09-21T00:28:59.357Z,72.62
2022-09-21T00:31:27.866Z,72.33
2022-09-21T00:33:54.845Z,71.80
2022-09-21T00:36:24.428Z,71.63
2022-09-21T00:39:01.505Z,71.07
2022-09-21T00:41:32.226Z,70.33
2022-09-21T00:44:29.980Z,70.19
2022-09-21T00:47:04.669Z,70.18
2022-09-21T00:49:34.557Z,70.50
2022-09-21T00:52:05.344Z,70.24
2022-09-21T00:55:01.443Z,71.02
2022-09-21T00:57:31.352Z,71.40
2022-09-21T01:00:02.598Z,71.55
2022-09-21T01:02:29.300Z,71.81
2022-09-21T01:04:56.682Z,71.29
2022-09-21T01:07:29.517Z,70.46
2022-09-21T01:10:03.303Z,71.17
2022-09-21T01:13:18.784Z,71.35
2022-09-21T01:16:12.394Z,72.25
2022-09-21T01:19:14.228Z,71.99
2022-09-21T01:21:57.261Z,71.96
2022-09-21T01:25:11.646Z,72.15
2022-09-21T01:28:02.790Z,72.80
2022-09-21T01:30:35.847Z,73.22
2022-09-21T01:33:14.524Z,72.98
2022-09-21T01:35:49.202Z,72.81
2022-09-21T01:38:30.147Z,72.57
2022-09-21T01:41:04.260Z,72.17
2022-09-21T01:43:38.615Z,72.35
2022-09-21T01:46:13.436Z,72.72
2022-09-21T01:48:47.074Z,72.63
2022-09-21T01:51:18.801Z,72.75
2022-09-21T01:54:02.591Z,73.37
2022-09-21T01:57:02.440Z,73.60
2022-09-21T01:59:56.946Z,72.97
2022-09-21T02:02:43.921Z,73.36
2022-09-21T02:05:12.263Z,73.44
2022-09-21T02:07:39.530Z,73.31
2022-09-21T02:10:10.351Z,73.05
2022-09-21T02:12:38.238Z,73.15
2022-09-21T02:15:05.275Z,73.06
2022-09-21T02:17:58.604Z,73.26
2022-09-21T02:20:52.637Z,73.19
2022-09-21T02:23:53.610Z,73.38
2022-09-21T02:26:36.657Z,73.16
2022-09-21T02:29:19.575Z,72.25
2022-09-21T02:32:06.243Z,71.88
2022-09-21T02:34:47.123Z,71.42
2022-09-21T02:37:32.224Z,71.62
2022-09-21T02:40:09.621Z,72.13
2022-09-21T02:42:43.254Z,72.68
2022-09-21T02:45:22.508Z,72.88
2022-09-21T02:48:10.464Z,72.71
2022-09-21T02:50:57.542Z,72.03
2022-09-21T02:53:31.750Z,71.84
2022-09-21T02:56:06.999Z,71.70
2022-09-21T02:58:43.007Z,71.17
2022-09-21T03:01:14.301Z,70.83
2022-09-21T03:03:41.693Z,70.38
2022-09-21T03:06:08.568Z,70.73
2022-09-21T03:08:35.253Z,71.03
2022-09-21T03:11:02.753Z,70.88
2022-09-21T03:13:29.972Z,70.56
2022-09-21T03:16:07.135Z,71.17
2022-09-21T03:18:34.958Z,71.31
2022-09-21T03:21:02.444Z,71.03
2022-09-21T03:23:29.760Z,70.64
2022-09-21T03:25:56.192Z,71.36
2022-09-21T03:28:23.483Z,71.42
2022-09-21T03:30:52.000Z,71.93
2022-09-21T03:33:21.345Z,72.43
2022-09-21T03:35:48.906Z,72.17
2022-09-21T03:38:16.785Z,71.98
2022-09-21T03:40:50.718Z,72.45
2022-09-21T03:43:18.192Z,72.07
2022-09-21T03:45:45.959Z,71.76
2022-09-21T03:48:12.839Z,71.63
2022-09-21T03:50:39.486Z,72.06
2022-09-21T03:53:06.587Z,72.32
2022-09-21T03:55:33.748Z,72.51
2022-09-21T03:58:00.819Z,72.81
2022-09-21T04:00:28.945Z,72.99
2022-09-21T04:02:55.865Z,73.19
2022-09-21T04:05:23.185Z,73.21
2022-09-21T04:07:50.006Z,73.26
2022-09-21T04:10:21.839Z,73.61
2022-09-21T04:12:48.625Z,73.70
2022-09-21T04:15:21.672Z,73.40
2022-09-21T04:17:51.974Z,73.40
2022-09-21T04:20:19.211Z,73.69
2022-09-21T04:22:46.642Z,73.71
2022-09-21T04:25:14.909Z,73.45
2022-09-21T04:27:41.475Z,73.20
2022-09-21T04:30:10.054Z,73.00
2022-09-21T04:32:36.940Z,72.94
2022-09-21T04:35:04.241Z,72.94
2022-09-21T04:37:30.719Z,73.05
2022-09-21T04:39:57.217Z,73.31
2022-09-21T04:42:23.679Z,73.26
2022-09-21T04:44:50.796Z,72.88
2022-09-21T04:47:17.332Z,72.65
2022-09-21T04:49:43.776Z,72.36
2022-09-21T04:52:10.234Z,72.08
2022-09-21T04:54:36.706Z,71.83
2022-09-21T04:57:03.177Z,72.17
2022-09-21T04:59:29.633Z,72.26
2022-09-21T05:01:56.058Z,71.80
2022-09-21T05:04:22.478Z,71.47
2022-09-21T05:06:48.989Z,71.63
2022-09-21T05:09:35.380Z,71.73
2022-09-21T05:12:02.947Z,71.76
2022-09-21T05:14:29.379Z,72.25
2022-09-21T05:16:55.788Z,72.55
2022-09-21T05:19:22.749Z,72.83
2022-09-21T05:21:49.165Z,72.92
2022-09-21T05:24:15.699Z,73.52
2022-09-21T05:26:42.186Z,73.51
2022-09-21T05:29:09.006Z,73.15
2022-09-21T05:31:49.037Z,73.10
2022-09-21T05:34:42.747Z,72.97
2022-09-21T05:37:35.506Z,73.13
2022-09-21T05:40:02.721Z,72.67
2022-09-21T05:42:29.771Z,72.46
2022-09-21T05:44:56.598Z,72.61
2022-09-21T05:48:01.093Z,72.05
2022-09-21T05:50:51.660Z,72.19
2022-09-21T05:53:36.993Z,72.47
2022-09-21T05:56:18.629Z,72.70
2022-09-21T05:59:11.601Z,72.56
2022-09-21T06:02:08.595Z,72.76
2022-09-21T06:04:35.537Z,72.78
2022-09-21T06:07:01.965Z,72.75
2022-09-21T06:09:29.721Z,73.24
2022-09-21T06:11:56.184Z,73.50
2022-09-21T06:14:25.543Z,73.92
2022-09-21T06:16:52.650Z,74.09
2022-09-21T06:19:19.364Z,73.81
2022-09-21T06:21:45.971Z,73.92
2022-09-21T06:24:12.589Z,73.25
2022-09-21T06:26:39.039Z,73.27
2022-09-21T06:29:05.473Z,73.21
2022-09-21T06:31:32.737Z,73.51
2022-09-21T06:33:59.849Z,73.08
2022-09-21T06:36:26.299Z,72.63
2022-09-21T06:38:52.812Z,71.91
2022-09-21T06:41:21.402Z,71.50
2022-09-21T06:43:48.215Z,71.52
2022-09-21T06:46:14.945Z,71.34
2022-09-21T06:48:41.427Z,71.62
2022-09-21T06:51:07.995Z,71.69
2022-09-21T06:53:35.056Z,71.69
2022-09-21T06:56:08.222Z,71.29
2022-09-21T06:58:37.494Z,71.20
2022-09-21T07:01:15.020Z,70.88
2022-09-21T07:03:43.090Z,70.85
2022-09-21T07:06:11.802Z,70.87
2022-09-21T07:11:27.360Z,70.69
2022-09-21T07:13:53.904Z,70.63
2022-09-21T07:16:21.490Z,71.00
2022-09-21T07:18:48.826Z,71.48
2022-09-21T07:21:15.884Z,72.29
2022-09-21T07:23:42.344Z,72.81
2022-09-21T07:26:14.254Z,72.87
2022-09-21T07:28:41.471Z,73.05
2022-09-21T07:31:12.006Z,72.82
2022-09-21T07:33:38.485Z,72.66
2022-09-21T07:36:10.160Z,72.45
2022-09-21T07:38:39.703Z,72.21
2022-09-21T07:41:08.548Z,71.62
2022-09-21T07:43:35.046Z,72.18
2022-09-21T07:46:02.110Z,72.24
2022-09-21T07:48:28.997Z,72.17
2022-09-21T07:51:00.068Z,72.68
2022-09-21T07:53:26.511Z,73.54
2022-09-21T07:55:52.949Z,73.85
2022-09-21T07:58:38.005Z,73.88
2022-09-21T08:01:06.608Z,74.28
2022-09-21T08:03:33.573Z,74.09
2022-09-21T08:06:00.323Z,73.92
2022-09-21T08:08:26.763Z,73.80
2022-09-21T08:10:54.438Z,73.73
2022-09-21T08:13:20.992Z,73.11
2022-09-21T08:15:50.205Z,72.77
2022-09-21T08:18:16.972Z,73.09
2022-09-21T08:20:43.864Z,73.25
2022-09-21T08:23:10.716Z,73.53
2022-09-21T08:25:37.407Z,73.36
2022-09-21T08:28:08.799Z,72.89
2022-09-21T08:30:36.228Z,73.47
2022-09-21T08:33:03.426Z,73.34
2022-09-21T08:35:29.885Z,73.23
2022-09-21T08:37:56.384Z,73.48
2022-09-21T08:40:23.993Z,73.39
2022-09-21T08:43:03.934Z,73.64
2022-09-21T08:45:39.201Z,73.65
2022-09-21T08:48:36.700Z,73.32
2022-09-21T08:51:10.070Z,73.37
2022-09-21T08:53:43.827Z,73.42
2022-09-21T08:56:15.608Z,72.91
2022-09-21T08:58:43.817Z,73.06
2022-09-21T09:01:40.351Z,72.86
2022-09-21T09:04:31.432Z,73.01
2022-09-21T09:07:26.060Z,72.70
2022-09-21T09:10:06.623Z,72.79
2022-09-21T09:13:33.672Z,71.96
2022-09-21T09:16:10.465Z,72.01
2022-09-21T09:19:11.865Z,70.69
2022-09-21T09:21:43.028Z,70.18
2022-09-21T09:24:43.581Z,69.76
2022-09-21T09:27:21.900Z,69.44
2022-09-21T09:30:03.547Z,69.63
2022-09-21T09:32:51.131Z,69.07
2022-09-21T09:35:39.272Z,67.98
2022-09-21T09:38:14.038Z,67.13
2022-09-21T09:41:07.107Z,66.02
2022-09-21T09:43:57.797Z,64.98
2022-09-21T09:47:20.063Z,64.16
2022-09-21T09:50:11.770Z,65.01
2022-09-21T09:52:39.096Z,65.40
2022-09-21T09:55:24.335Z,65.13
2022-09-21T09:57:52.394Z,65.26
2022-09-21T10:00:21.844Z,64.46
2022-09-21T10:03:01.368Z,64.30
2022-09-21T10:05:32.900Z,63.66
2022-09-21T10:08:00.064Z,63.53
2022-09-21T10:10:29.269Z,62.17
2022-09-21T10:13:06.341Z,62.49
2022-09-21T10:15:33.367Z,61.89
2022-09-21T10:18:18.804Z,61.78
2022-09-21T10:21:03.109Z,61.47
2022-09-21T10:23:32.417Z,62.13
2022-09-21T10:26:09.494Z,61.61
2022-09-21T10:28:38.066Z,61.40
2022-09-21T10:31:23.710Z,58.42
2022-09-21T10:34:07.040Z,59.03
2022-09-21T10:36:37.485Z,58.34
2022-09-21T10:39:18.524Z,57.33
2022-09-21T10:42:18.009Z,56.18
2022-09-21T10:45:12.843Z,57.22
2022-09-21T10:47:44.231Z,56.76
2022-09-21T10:50:36.310Z,54.52
2022-09-21T10:53:30.926Z,56.23
2022-09-21T10:56:20.566Z,55.88
2022-09-21T10:59:21.852Z,52.58
2022-09-21T11:01:55.450Z,55.23
2022-09-21T11:04:32.132Z,53.35
2022-09-21T11:07:09.107Z,53.86
2022-09-21T11:09:54.349Z,55.77
2022-09-21T11:12:45.762Z,54.98
2022-09-21T11:15:25.408Z,55.12
2022-09-21T11:18:04.716Z,54.57
2022-09-21T11:20:46.199Z,54.39
2022-09-21T11:23:43.991Z,54.89
2022-09-21T11:26:13.074Z,54.57
2022-09-21T11:28:49.632Z,52.60
2022-09-21T11:31:26.079Z,51.30
2022-09-21T11:34:14.963Z,52.73
2022-09-21T11:37:15.010Z,49.32
2022-09-21T11:40:04.739Z,50.11
2022-09-21T11:43:29.509Z,50.47
2022-09-21T11:46:34.762Z,49.31
2022-09-21T11:49:19.566Z,49.10
2022-09-21T11:51:57.380Z,48.19
2022-09-21T11:54:40.768Z,49.76
2022-09-21T11:57:28.679Z,48.85
2022-09-21T12:00:18.702Z,48.36
2022-09-21T12:03:33.147Z,49.33
2022-09-21T12:06:42.939Z,47.65
2022-09-21T12:10:01.472Z,44.13
2022-09-21T12:12:39.916Z,45.29
2022-09-21T12:15:34.511Z,48.43
2022-09-21T12:18:28.507Z,46.61
2022-09-21T12:21:16.490Z,45.71
2022-09-21T12:23:49.708Z,44.64
2022-09-21T12:26:37.008Z,46.09
2022-09-21T12:29:14.856Z,46.61
2022-09-21T12:32:03.618Z,45.75
2022-09-21T12:35:00.695Z,44.24
2022-09-21T12:37:39.267Z,45.42
2022-09-21T12:40:27.701Z,45.34
2022-09-21T12:43:13.965Z,45.49
2022-09-21T12:45:51.463Z,44.50
2022-09-21T12:48:32.098Z,43.26
2022-09-21T12:51:35.409Z,43.03
2022-09-21T12:54:24.140Z,43.59
2022-09-21T12:57:36.936Z,43.98
2022-09-21T13:00:17.742Z,44.44
2022-09-21T13:03:10.908Z,44.41
2022-09-21T13:06:07.652Z,44.31
2022-09-21T13:08:43.251Z,44.50
2022-09-21T13:11:10.773Z,45.23
2022-09-21T13:13:45.302Z,45.12
2022-09-21T13:16:32.250Z,45.10
2022-09-21T13:19:24.020Z,45.70
2022-09-21T13:22:34.299Z,46.31
2022-09-21T13:25:09.217Z,47.17
2022-09-21T13:28:04.167Z,46.19
2022-09-21T13:30:35.103Z,46.44
2022-09-21T13:33:05.122Z,46.53
2022-09-21T13:36:02.767Z,46.57
2022-09-21T13:38:41.390Z,46.96
2022-09-21T13:41:19.724Z,47.03
2022-09-21T13:43:50.418Z,47.53
2022-09-21T13:46:43.692Z,46.67
2022-09-21T13:49:13.837Z,47.14
2022-09-21T13:52:04.043Z,47.61
2022-09-21T13:54:52.164Z,47.47
2022-09-21T13:57:27.014Z,48.00
2022-09-21T14:00:07.490Z,48.41
2022-09-21T14:02:39.245Z,48.38
2022-09-21T14:05:42.478Z,49.27
2022-09-21T14:08:14.665Z,49.28
2022-09-21T14:10:51.827Z,49.06
2022-09-21T14:13:47.842Z,46.32
2022-09-21T14:16:37.203Z,47.64
2022-09-21T14:19:26.655Z,45.28
2022-09-21T14:22:06.075Z,45.34
2022-09-21T14:24:47.158Z,44.84
2022-09-21T14:27:36.329Z,43.73
2022-09-21T14:30:19.911Z,44.00
2022-09-21T14:33:49.003Z,43.49
2022-09-21T14:36:22.131Z,43.35
2022-09-21T14:39:00.579Z,43.00
2022-09-21T14:41:40.882Z,42.71
2022-09-21T14:44:19.858Z,41.54
2022-09-21T14:47:39.289Z,39.78
2022-09-21T14:50:43.399Z,40.30
2022-09-21T14:53:39.224Z,42.71
2022-09-21T14:56:58.698Z,42.53
2022-09-21T14:59:55.271Z,43.63
2022-09-21T15:02:32.359Z,44.16
2022-09-21T15:05:27.611Z,42.31
2022-09-21T15:08:40.703Z,43.85
2022-09-21T15:11:23.422Z,43.49
2022-09-21T15:14:00.075Z,44.24
2022-09-21T15:16:35.169Z,43.81
2022-09-21T15:19:23.565Z,43.01
2022-09-21T15:22:17.677Z,42.55
2022-09-21T15:25:02.721Z,43.09
2022-09-21T15:27:32.996Z,44.62
2022-09-21T15:30:04.083Z,44.46
2022-09-21T15:32:40.011Z,44.95
2022-09-21T15:35:18.069Z,45.13
2022-09-21T15:37:45.706Z,45.42
2022-09-21T15:40:23.237Z,45.88
2022-09-21T15:43:16.751Z,46.55
2022-09-21T15:46:00.761Z,47.20
2022-09-21T15:48:32.970Z,47.99
2022-09-21T15:51:23.320Z,47.69
2022-09-21T15:53:58.991Z,48.43
2022-09-21T15:56:28.643Z,49.54
2022-09-21T15:59:08.962Z,50.07
2022-09-21T16:01:47.453Z,51.37
2022-09-21T16:04:23.712Z,52.29
2022-09-21T16:07:04.079Z,52.33
2022-09-21T16:09:46.169Z,52.90
2022-09-21T16:12:39.597Z,52.52
2022-09-21T16:15:18.513Z,53.41
2022-09-21T16:18:05.054Z,53.49
2022-09-21T16:21:08.279Z,54.89
2022-09-21T16:23:35.819Z,54.87
2022-09-21T16:26:02.391Z,55.01
2022-09-21T16:28:38.389Z,55.74
2022-09-21T16:31:30.971Z,56.86
2022-09-21T16:34:06.283Z,55.87
2022-09-21T16:36:40.571Z,55.70
2022-09-21T16:39:15.010Z,56.17
2022-09-21T16:41:56.958Z,57.16
2022-09-21T16:44:27.937Z,57.56
2022-09-21T16:47:01.720Z,57.55
2022-09-21T16:49:33.545Z,57.62
2022-09-21T16:52:00.350Z,58.00
2022-09-21T16:54:28.208Z,58.69
2022-09-21T16:56:58.263Z,59.38
2022-09-21T16:59:25.804Z,59.51
2022-09-21T17:01:56.610Z,59.94
2022-09-21T17:04:29.070Z,60.13
2022-09-21T17:06:56.760Z,60.68
2022-09-21T17:09:33.195Z,60.92
2022-09-21T17:12:01.986Z,60.79
2022-09-21T17:14:40.788Z,60.45
2022-09-21T17:17:17.462Z,60.87
2022-09-21T17:19:46.424Z,60.85
2022-09-21T17:22:17.133Z,61.33
2022-09-21T17:24:51.671Z,61.53
2022-09-21T17:27:22.909Z,61.46
2022-09-21T17:29:50.442Z,61.57
2022-09-21T17:32:20.984Z,61.23
2022-09-21T17:35:15.749Z,61.98
2022-09-21T17:37:42.376Z,62.34
2022-09-21T17:40:11.090Z,62.08
2022-09-21T17:42:41.515Z,62.75
2022-09-21T17:45:37.527Z,63.36
2022-09-21T17:48:05.646Z,62.88
2022-09-21T17:50:32.318Z,63.79
2022-09-21T17:53:17.723Z,62.85
2022-09-21T17:55:56.758Z,63.79
2022-09-21T17:59:02.005Z,64.16
2022-09-21T18:01:37.676Z,63.25
2022-09-21T18:04:05.822Z,62.93
2022-09-21T18:06:34.101Z,62.88
2022-09-21T18:09:01.619Z,63.08
2022-09-21T18:12:13.731Z,63.56
2022-09-21T18:15:03.260Z,63.30
2022-09-21T18:18:13.011Z,64.19
2022-09-21T18:21:02.060Z,64.25
2022-09-21T18:23:56.476Z,65.04
2022-09-21T18:26:23.955Z,64.71
2022-09-21T18:28:56.899Z,64.42
2022-09-21T18:32:01.349Z,65.29
2022-09-21T18:34:36.680Z,65.37
2022-09-21T18:37:48.521Z,65.43
2022-09-21T18:40:53.056Z,65.60
2022-09-21T18:43:32.928Z,65.64
2022-09-21T18:46:14.786Z,65.34
2022-09-21T18:49:12.847Z,64.72
2022-09-21T18:52:24.596Z,66.11
2022-09-21T18:54:51.479Z,65.63
2022-09-21T18:57:18.353Z,65.71
2022-09-21T18:59:45.260Z,65.58
2022-09-21T19:02:20.286Z,66.12
2022-09-21T19:04:48.496Z,65.89
2022-09-21T19:07:40.174Z,66.21
2022-09-21T19:10:25.250Z,65.77
2022-09-21T19:13:19.434Z,66.18
2022-09-21T19:16:07.173Z,66.06
2022-09-21T19:19:01.038Z,66.12
2022-09-21T19:21:51.654Z,66.82
2022-09-21T19:24:42.465Z,66.69
2022-09-21T19:27:52.582Z,66.25
2022-09-21T19:30:19.279Z,66.31
2022-09-21T19:33:01.122Z,66.14
2022-09-21T19:35:30.912Z,66.09
2022-09-21T19:38:01.340Z,65.88
2022-09-21T19:40:34.565Z,65.09
2022-09-21T19:43:10.645Z,64.99
2022-09-21T19:46:05.186Z,64.89
2022-09-21T19:48:58.971Z,65.61
2022-09-21T19:51:51.473Z,66.39
2022-09-21T19:54:43.286Z,66.15
2022-09-21T19:57:35.045Z,65.63
2022-09-21T20:00:05.295Z,65.88
2022-09-21T20:02:59.806Z,65.65
2022-09-21T20:06:06.577Z,65.74
2022-09-21T20:09:08.354Z,66.42
2022-09-21T20:12:03.726Z,66.68
2022-09-21T20:14:49.831Z,67.11
2022-09-21T20:17:24.829Z,67.26
2022-09-21T20:20:09.053Z,67.37
2022-09-21T20:22:38.806Z,67.23
2022-09-21T20:25:30.388Z,66.53
2022-09-21T20:27:58.128Z,65.84
2022-09-21T20:30:31.365Z,65.81
2022-09-21T20:33:14.076Z,65.77
2022-09-21T20:35:45.242Z,66.36
2022-09-21T20:38:11.784Z,66.82
2022-09-21T20:40:40.323Z,67.41
2022-09-21T20:43:09.043Z,67.42
2022-09-21T20:45:35.616Z,67.45
2022-09-21T20:48:13.172Z,67.27
2022-09-21T20:50:46.441Z,66.72
2022-09-21T20:53:13.790Z,67.02
2022-09-21T20:55:41.667Z,68.17
2022-09-21T20:58:12.629Z,67.85
2022-09-21T21:00:39.357Z,67.60
2022-09-21T21:03:05.862Z,67.47
2022-09-21T21:05:32.752Z,67.05
2022-09-21T21:07:59.172Z,66.91
2022-09-21T21:10:25.762Z,66.91
2022-09-21T21:12:54.969Z,67.32
2022-09-21T21:15:21.451Z,67.79
2022-09-21T21:17:48.879Z,67.40
2022-09-21T21:20:19.031Z,67.80
2022-09-21T21:22:50.193Z,67.81
2022-09-21T21:25:17.294Z,68.07
2022-09-21T21:27:44.209Z,67.18
2022-09-21T21:30:11.764Z,66.63
2022-09-21T21:32:38.236Z,66.04
2022-09-21T21:35:05.671Z,66.54
2022-09-21T21:37:32.144Z,66.40
2022-09-21T21:39:58.611Z,66.93
2022-09-21T21:42:25.731Z,66.86
2022-09-21T21:44:52.303Z,67.04
2022-09-21T21:50:06.261Z,68.71
2022-09-21T21:52:32.792Z,68.54
2022-09-21T21:54:59.230Z,69.00
2022-09-21T21:57:25.678Z,69.18
2022-09-21T21:59:52.117Z,68.92
2022-09-21T22:02:18.780Z,69.01
2022-09-21T22:04:45.228Z,69.00
2022-09-21T22:07:11.687Z,68.75
2022-09-21T22:09:38.534Z,69.13
2022-09-21T22:12:05.086Z,69.58
2022-09-21T22:14:31.788Z,69.45
2022-09-21T22:16:59.053Z,69.40
2022-09-21T22:19:25.608Z,68.31
2022-09-21T22:21:54.452Z,68.93
2022-09-21T22:24:24.879Z,68.57
2022-09-21T22:26:51.405Z,69.06
2022-09-21T22:29:17.872Z,69.21
2022-09-21T22:31:48.100Z,68.74
2022-09-21T22:34:16.198Z,69.38
2022-09-21T22:36:43.758Z,69.01
2022-09-21T22:39:12.012Z,69.35
2022-09-21T22:41:41.985Z,68.56
2022-09-21T22:44:10.366Z,68.67
2022-09-21T22:46:37.548Z,68.96
2022-09-21T22:49:04.081Z,68.62
2022-09-21T22:51:31.172Z,69.28
2022-09-21T22:53:58.307Z,69.18
2022-09-21T22:56:31.525Z,70.18
2022-09-21T22:59:01.422Z,69.56
2022-09-21T23:01:33.454Z,69.61
2022-09-21T23:04:05.532Z,69.17
2022-09-21T23:06:35.494Z,68.50
2022-09-21T23:09:07.669Z,68.53
2022-09-21T23:11:38.498Z,68.10
2022-09-21T23:14:05.763Z,67.97
2022-09-21T23:16:32.505Z,68.31
2022-09-21T23:18:59.577Z,69.00
2022-09-21T23:21:29.344Z,68.71
2022-09-21T23:24:02.963Z,68.96
2022-09-21T23:26:32.163Z,68.95
2022-09-21T23:29:02.289Z,68.72
2022-09-21T23:31:31.408Z,68.80
2022-09-21T23:34:05.242Z,69.36
2022-09-21T23:36:32.410Z,69.55
2022-09-21T23:38:59.753Z,68.79
2022-09-21T23:41:34.055Z,68.56
2022-09-21T23:44:01.480Z,68.76
2022-09-21T23:46:33.236Z,68.50
2022-09-21T23:49:01.071Z,69.12
2022-09-21T23:51:29.886Z,68.52
2022-09-21T23:53:57.398Z,67.87
2022-09-21T23:56:25.046Z,68.63
2022-09-21T23:58:52.341Z,68.00
